Time;durP1;ratioP1;P1;durP2;ratioP2;P2;SDS_P1;SDS_P2;PMS_P1;PMS_P2;Temp;Humidity;BMP_temperature;BMP_pressure;BME280_temperature;BME280_humidity;BME280_pressure;Samples;Min_cycle;Max_cycle;Signal;HPM_P1;HPM_P2
2023/03/10 00:00:45;;;;;;;1.87;1.10;;;;;;;-145.69;100.00;52440.44;5120528;28;20205;-85
2023/03/10 00:03:12;;;;;;;3.07;0.93;;;;;;;-145.69;100.00;52444.38;5120851;28;20201;-86
2023/03/10 00:05:39;;;;;;;1.77;1.00;;;;;;;-145.69;100.00;52456.28;5119439;28;20213;-86
2023/03/10 00:08:06;;;;;;;2.20;1.00;;;;;;;-145.69;100.00;52480.03;5117772;28;20194;-86
2023/03/10 00:10:33;;;;;;;4.07;0.93;;;;;;;-145.69;100.00;52487.97;5118668;28;20685;-86
2023/03/10 00:12:59;;;;;;;5.07;1.20;;;;;;;-145.69;100.00;52476.06;5118424;28;20233;-86
2023/03/10 00:15:26;;;;;;;6.63;1.30;;;;;;;-145.69;100.00;52460.22;5102967;28;20323;-85
2023/03/10 00:17:54;;;;;;;3.93;1.10;;;;;;;-145.69;100.00;52440.44;5098762;28;20198;-85
2023/03/10 00:20:21;;;;;;;5.07;1.77;;;;;;;-145.69;100.00;52448.34;5119076;28;20194;-86
2023/03/10 00:22:49;;;;;;;4.00;1.20;;;;;;;-145.69;100.00;52484.00;5118908;28;20198;-86
2023/03/10 00:25:16;;;;;;;5.83;1.30;;;;;;;-145.69;100.00;52468.16;5117723;28;20648;-86
2023/03/10 00:27:42;;;;;;;1.50;1.00;;;;;;;-145.69;100.00;52470.13;5117591;28;20193;-85
2023/03/10 00:30:11;;;;;;;2.80;1.20;;;;;;;-145.69;100.00;52480.03;5120853;28;20189;-85
2023/03/10 00:32:37;;;;;;;3.73;1.00;;;;;;;-145.69;100.00;52499.84;5120703;28;20706;-85
2023/03/10 00:35:05;;;;;;;4.67;1.43;;;;;;;-145.69;100.00;52466.16;5120743;28;20209;-86
2023/03/10 00:37:31;;;;;;;4.50;1.33;;;;;;;-145.69;100.00;52432.50;5102351;28;20197;-85
2023/03/10 00:39:59;;;;;;;3.33;1.63;;;;;;;-145.69;100.00;52454.28;5118523;28;20193;-85
2023/03/10 00:42:25;;;;;;;4.77;1.30;;;;;;;-145.69;100.00;52430.53;5117984;28;20229;-85
2023/03/10 00:44:52;;;;;;;5.43;1.20;;;;;;;-145.69;100.00;52452.31;5118890;28;20618;-84
2023/03/10 00:47:18;;;;;;;8.93;1.60;;;;;;;-145.69;100.00;52452.31;5118120;28;20209;-85
2023/03/10 00:49:45;;;;;;;3.00;1.07;;;;;;;-145.69;100.00;52466.16;5119736;28;20698;-85
2023/03/10 00:52:11;;;;;;;2.23;1.00;;;;;;;-145.69;100.00;52416.66;5118768;28;20193;-85
2023/03/10 00:54:40;;;;;;;4.13;1.17;;;;;;;-145.69;100.00;52466.16;5116144;28;20237;-85
2023/03/10 00:57:08;;;;;;;3.47;1.30;;;;;;;-145.69;100.00;52444.38;5115466;28;20255;-85
2023/03/10 00:59:34;;;;;;;8.43;1.40;;;;;;;-145.69;100.00;52428.53;5123635;28;20208;-84
2023/03/10 01:02:01;;;;;;;4.67;1.03;;;;;;;-145.69;100.00;52440.44;5109033;28;20201;-85
2023/03/10 01:04:27;;;;;;;4.73;1.40;;;;;;;-145.69;100.00;52444.38;5126766;28;20197;-85
2023/03/10 01:06:54;;;;;;;2.27;1.10;;;;;;;-145.69;100.00;52460.22;5127949;28;20205;-85
2023/03/10 01:09:20;;;;;;;7.13;1.30;;;;;;;-145.69;100.00;52392.91;5127247;28;20186;-84
2023/03/10 01:11:47;;;;;;;2.57;0.93;;;;;;;-145.69;100.00;52448.34;5131056;28;20208;-85
2023/03/10 01:14:17;;;;;;;5.43;1.10;;;;;;;-145.69;100.00;52436.47;5131214;28;20640;-85
2023/03/10 01:16:43;;;;;;;3.50;0.90;;;;;;;-145.69;100.00;52398.84;5129733;28;20675;-83
2023/03/10 01:19:10;;;;;;;2.23;1.10;;;;;;;-145.69;100.00;52404.78;5129202;28;20198;-85
2023/03/10 01:21:38;;;;;;;3.30;0.80;;;;;;;-145.69;100.00;52450.31;5127982;28;20225;-82
2023/03/10 01:24:06;;;;;;;3.20;1.07;;;;;;;-145.69;100.00;52432.50;5127821;28;20202;-84
2023/03/10 01:26:32;;;;;;;3.90;1.10;;;;;;;-145.69;100.00;52416.66;5121237;28;20193;-85
2023/03/10 01:28:59;;;;;;;1.57;0.80;;;;;;;-145.69;100.00;52420.63;5122092;28;20219;-84
2023/03/10 01:31:27;;;;;;;1.87;1.10;;;;;;;-145.69;100.00;52418.63;5124288;28;20197;-85
2023/03/10 01:33:53;;;;;;;3.53;1.10;;;;;;;-145.69;100.00;52428.53;5121114;28;20242;-85
2023/03/10 01:36:22;;;;;;;2.90;1.00;;;;;;;-145.69;100.00;52408.75;5121544;28;20790;-85
2023/03/10 01:38:49;;;;;;;1.30;0.73;;;;;;;-145.69;100.00;52422.59;5120353;28;20213;-85
2023/03/10 01:41:17;;;;;;;4.23;0.87;;;;;;;-145.69;100.00;52464.19;5118200;28;20197;-84
2023/03/10 01:43:45;;;;;;;4.00;0.80;;;;;;;-145.69;100.00;52448.34;5117843;28;20217;-82
2023/03/10 01:46:35;;;;;;;1.07;0.60;;;;;;;-145.69;100.00;52458.25;5118779;28;20205;-84
2023/03/10 01:49:06;;;;;;;1.47;0.70;;;;;;;-145.69;100.00;52474.09;5116891;28;20194;-84
2023/03/10 01:51:35;;;;;;;4.73;0.97;;;;;;;-145.69;100.00;52438.44;5116461;28;20193;-82
2023/03/10 01:54:03;;;;;;;3.87;1.00;;;;;;;-145.69;100.00;52448.34;5116410;28;20244;-82
2023/03/10 01:56:31;;;;;;;1.30;0.80;;;;;;;-145.69;100.00;52452.31;5116299;28;20659;-83
2023/03/10 01:58:57;;;;;;;3.60;0.83;;;;;;;-145.69;100.00;52482.00;5116300;28;20206;-82
2023/03/10 02:01:24;;;;;;;2.57;0.80;;;;;;;-145.69;100.00;52456.28;5115819;28;20201;-82
2023/03/10 02:03:56;;;;;;;1.47;0.70;;;;;;;-145.69;100.00;52444.38;5115755;28;20197;-82
2023/03/10 02:06:23;;;;;;;0.80;0.60;;;;;;;-145.69;100.00;52472.13;5104450;28;20281;-82
2023/03/10 02:08:53;;;;;;;2.57;0.70;;;;;;;-145.69;100.00;52511.72;5095789;28;20228;-82
2023/03/10 02:11:20;;;;;;;4.90;0.87;;;;;;;-145.69;100.00;52472.13;5101149;28;20536;-82
2023/03/10 02:13:47;;;;;;;1.83;0.77;;;;;;;-145.69;100.00;52454.28;5115556;28;20232;-82
2023/03/10 02:16:14;;;;;;;2.20;0.63;;;;;;;-145.69;100.00;52491.91;5115773;28;20209;-82
2023/03/10 02:18:44;;;;;;;0.83;0.60;;;;;;;-145.69;100.00;52468.16;5115494;28;20185;-83
2023/03/10 02:21:19;;;;;;;2.40;0.57;;;;;;;-145.69;100.00;52511.72;5115545;28;20205;-83
2023/03/10 02:23:52;;;;;;;1.60;0.60;;;;;;;-145.69;100.00;52476.06;5115451;28;20193;-83
2023/03/10 02:26:29;;;;;;;1.90;0.70;;;;;;;-145.69;100.00;52484.00;5115867;28;20559;-83
2023/03/10 02:29:01;;;;;;;0.43;0.40;;;;;;;-145.69;100.00;52456.28;5115907;28;20225;-83
2023/03/10 02:31:29;;;;;;;0.70;0.50;;;;;;;-145.69;100.00;52487.97;5115991;28;20563;-83
2023/03/10 02:33:57;;;;;;;0.70;0.70;;;;;;;-145.69;100.00;52462.22;5115864;28;20252;-83
2023/03/10 02:36:24;;;;;;;1.60;0.60;;;;;;;-145.69;100.00;52476.06;5115866;28;20223;-82
2023/03/10 02:38:50;;;;;;;0.70;0.50;;;;;;;-145.69;100.00;52478.06;5116036;28;20197;-83
2023/03/10 02:41:21;;;;;;;0.83;0.50;;;;;;;-145.69;100.00;52487.97;5115812;28;20201;-84
2023/03/10 02:43:49;;;;;;;0.80;0.53;;;;;;;-145.69;100.00;52501.81;5115707;28;20262;-85
2023/03/10 02:46:18;;;;;;;1.00;0.63;;;;;;;-145.69;100.00;52468.16;5116183;28;20205;-85
2023/03/10 02:48:44;;;;;;;0.60;0.60;;;;;;;-145.69;100.00;52462.22;5116588;28;20205;-85
2023/03/10 02:51:14;;;;;;;0.80;0.40;;;;;;;-145.69;100.00;52448.34;5115897;28;20204;-84
2023/03/10 02:53:41;;;;;;;2.47;0.57;;;;;;;-145.69;100.00;52505.78;5115248;28;20299;-81
2023/03/10 02:56:08;;;;;;;0.60;0.60;;;;;;;-145.69;100.00;52489.94;5115157;28;20640;-84
2023/03/10 02:58:35;;;;;;;0.70;0.67;;;;;;;-145.69;100.00;52487.97;5115451;28;20201;-83
2023/03/10 03:01:03;;;;;;;0.87;0.60;;;;;;;-145.69;100.00;52484.00;5115230;28;20220;-83
2023/03/10 03:03:31;;;;;;;0.60;0.60;;;;;;;-145.69;100.00;52480.03;5114529;28;20655;-83
2023/03/10 03:05:58;;;;;;;2.07;0.57;;;;;;;-145.69;100.00;52444.38;5094827;28;20198;-83
2023/03/10 03:08:25;;;;;;;0.60;0.60;;;;;;;-145.69;100.00;52499.84;5094721;28;20197;-83
2023/03/10 03:10:53;;;;;;;0.70;0.50;;;;;;;-145.69;100.00;52495.88;5094596;28;20569;-82
2023/03/10 03:13:19;;;;;;;1.70;0.60;;;;;;;-145.69;100.00;52487.97;5094185;28;20209;-82
2023/03/10 03:15:46;;;;;;;1.60;0.63;;;;;;;-145.69;100.00;52460.22;5114361;28;20548;-83
2023/03/10 03:18:13;;;;;;;0.50;0.50;;;;;;;-145.69;100.00;52450.31;5114961;28;20235;-82
2023/03/10 03:20:41;;;;;;;3.03;1.17;;;;;;;-145.69;100.00;52476.06;5114684;28;20572;-82
2023/03/10 03:23:07;;;;;;;3.23;0.80;;;;;;;-145.69;100.00;52464.19;5114443;28;20189;-82
2023/03/10 03:25:36;;;;;;;1.60;0.70;;;;;;;-145.69;100.00;52456.28;5114259;28;20213;-82
2023/03/10 03:28:03;;;;;;;0.60;0.60;;;;;;;-145.69;100.00;52480.03;5114463;28;20202;-82
2023/03/10 03:30:31;;;;;;;2.10;0.80;;;;;;;-145.69;100.00;52472.13;5114694;28;20194;-83
2023/03/10 03:32:57;;;;;;;1.60;0.67;;;;;;;-145.69;100.00;52484.00;5113489;28;20197;-83
2023/03/10 03:35:26;;;;;;;1.33;0.73;;;;;;;-145.69;100.00;52503.81;5114272;28;20583;-83
2023/03/10 03:37:55;;;;;;;1.33;0.80;;;;;;;-145.69;100.00;52468.16;5113821;28;20205;-82
2023/03/10 03:40:23;;;;;;;6.07;0.87;;;;;;;-145.69;100.00;52491.91;5113918;28;20656;-83
2023/03/10 03:42:52;;;;;;;1.60;0.67;;;;;;;-145.69;100.00;52438.44;5113774;28;20241;-83
2023/03/10 03:45:21;;;;;;;0.70;0.70;;;;;;;-145.69;100.00;52470.13;5114282;28;20209;-82
2023/03/10 03:47:48;;;;;;;3.33;0.70;;;;;;;-145.69;100.00;52509.75;5113869;28;20220;-82
2023/03/10 03:50:16;;;;;;;1.50;0.80;;;;;;;-145.69;100.00;52513.69;5113549;28;20674;-83
2023/03/10 03:52:43;;;;;;;0.83;0.70;;;;;;;-145.69;100.00;52456.28;5113926;28;20193;-82
2023/03/10 03:55:12;;;;;;;1.10;0.80;;;;;;;-145.69;100.00;52495.88;5114261;28;20225;-82
2023/03/10 03:57:39;;;;;;;0.50;0.50;;;;;;;-145.69;100.00;52482.00;5113679;28;20189;-82
2023/03/10 04:00:10;;;;;;;3.03;1.00;;;;;;;-145.69;100.00;52507.75;5113692;28;20201;-83
2023/03/10 04:02:37;;;;;;;0.67;0.67;;;;;;;-145.69;100.00;52485.97;5114327;28;20205;-82
2023/03/10 04:05:04;;;;;;;0.90;0.60;;;;;;;-145.69;100.00;52487.97;5114826;28;20197;-83
2023/03/10 04:07:31;;;;;;;1.63;0.70;;;;;;;-145.69;100.00;52482.00;5114083;28;20291;-83
2023/03/10 04:09:57;;;;;;;3.30;0.83;;;;;;;-145.69;100.00;52474.09;5113906;28;20201;-83
2023/03/10 04:12:26;;;;;;;6.43;0.90;;;;;;;-145.69;100.00;52499.84;5095401;28;20217;-82
2023/03/10 04:14:52;;;;;;;5.37;0.80;;;;;;;-145.69;100.00;52507.75;5110477;28;20229;-82
2023/03/10 04:17:19;;;;;;;3.60;1.00;;;;;;;-145.69;100.00;52491.91;5093257;28;20210;-82
2023/03/10 04:19:46;;;;;;;2.00;1.13;;;;;;;-145.69;100.00;52517.66;5093157;28;20198;-82
2023/03/10 04:22:12;;;;;;;2.03;0.67;;;;;;;-145.69;100.00;52485.97;5093077;28;20202;-82
2023/03/10 04:24:39;;;;;;;1.33;0.90;;;;;;;-145.69;100.00;52472.13;5109923;28;20196;-82
2023/03/10 04:27:08;;;;;;;4.57;0.93;;;;;;;-145.69;100.00;52484.00;5113592;28;20254;-82
2023/03/10 04:29:36;;;;;;;1.23;0.77;;;;;;;-145.69;100.00;52474.09;5113459;28;20259;-83
2023/03/10 04:32:03;;;;;;;5.20;0.97;;;;;;;-145.69;100.00;52482.00;5113511;28;20193;-83
2023/03/10 04:34:29;;;;;;;1.67;0.80;;;;;;;-145.69;100.00;52503.81;5113587;28;20228;-83
2023/03/10 04:36:56;;;;;;;1.63;0.80;;;;;;;-145.69;100.00;52484.00;5113245;28;20193;-83
2023/03/10 04:39:22;;;;;;;0.83;0.57;;;;;;;-145.69;100.00;52497.84;5113103;28;20190;-83
2023/03/10 04:41:49;;;;;;;0.40;0.40;;;;;;;-145.69;100.00;52485.97;5113547;28;20229;-83
2023/03/10 04:44:15;;;;;;;2.20;0.97;;;;;;;-145.69;100.00;52505.78;5116711;28;20208;-84
2023/03/10 04:46:43;;;;;;;3.97;0.60;;;;;;;-145.69;100.00;52470.13;5117676;28;20201;-84
2023/03/10 04:49:09;;;;;;;3.70;0.83;;;;;;;-145.69;100.00;52476.06;5117805;28;20194;-83
2023/03/10 04:51:36;;;;;;;3.80;0.70;;;;;;;-145.69;100.00;52487.97;5118201;28;20201;-83
2023/03/10 04:54:02;;;;;;;3.97;1.07;;;;;;;-145.69;100.00;52503.81;5117416;28;20225;-83
2023/03/10 04:56:29;;;;;;;7.20;1.30;;;;;;;-145.69;100.00;52515.69;5118650;28;20198;-83
2023/03/10 04:58:55;;;;;;;3.87;1.10;;;;;;;-145.69;100.00;52523.59;5117715;28;20208;-84
2023/03/10 05:01:22;;;;;;;4.63;1.40;;;;;;;-145.69;100.00;52517.66;5117567;28;20697;-83
2023/03/10 05:03:50;;;;;;;1.10;0.90;;;;;;;-145.69;100.00;52491.91;5116973;28;20194;-82
2023/03/10 05:06:19;;;;;;;1.33;0.90;;;;;;;-145.69;100.00;52480.03;5117677;28;20193;-83
2023/03/10 05:08:46;;;;;;;0.60;0.60;;;;;;;-145.69;100.00;52505.78;5117037;28;20679;-83
2023/03/10 05:11:13;;;;;;;1.60;0.83;;;;;;;-145.69;100.00;52476.06;5118885;28;20556;-84
2023/03/10 05:13:39;;;;;;;1.73;0.77;;;;;;;-145.69;100.00;52462.22;5119045;28;20201;-84
2023/03/10 05:16:13;;;;;;;0.73;0.60;;;;;;;-145.69;100.00;52470.13;5118741;28;20221;-85
2023/03/10 05:18:39;;;;;;;4.83;0.90;;;;;;;-145.69;100.00;52458.25;5118093;28;20656;-84
2023/03/10 05:21:07;;;;;;;2.00;0.60;;;;;;;-145.69;100.00;52470.13;5117260;28;20205;-84
2023/03/10 05:23:34;;;;;;;5.20;0.60;;;;;;;-145.69;100.00;52474.09;5117350;28;20196;-85
2023/03/10 05:26:03;;;;;;;0.80;0.60;;;;;;;-145.69;100.00;52503.81;5117136;28;20198;-84
2023/03/10 05:28:29;;;;;;;2.20;0.97;;;;;;;-145.69;100.00;52495.88;5116707;28;20551;-84
2023/03/10 05:30:56;;;;;;;1.40;0.70;;;;;;;-145.69;100.00;52525.59;5117281;28;20197;-83
2023/03/10 05:33:22;;;;;;;2.67;0.80;;;;;;;-145.69;100.00;52491.91;5116541;28;20205;-82
2023/03/10 05:35:49;;;;;;;3.70;0.80;;;;;;;-145.69;100.00;52511.72;5116904;28;20225;-82
2023/03/10 05:38:17;;;;;;;1.50;0.73;;;;;;;-145.69;100.00;52491.91;5116493;28;20736;-83
2023/03/10 05:40:43;;;;;;;1.83;1.30;;;;;;;-145.69;100.00;52507.75;5116332;28;20563;-82
2023/03/10 05:43:10;;;;;;;1.30;1.00;;;;;;;-145.69;100.00;52495.88;5116448;28;20226;-82
2023/03/10 05:45:37;;;;;;;1.30;0.60;;;;;;;-145.69;100.00;52527.56;5116422;28;20198;-85
2023/03/10 05:48:04;;;;;;;0.70;0.60;;;;;;;-145.69;100.00;52474.09;5116873;28;20262;-83
2023/03/10 05:50:30;;;;;;;1.13;0.60;;;;;;;-145.69;100.00;52511.72;5116676;28;20198;-83
2023/03/10 05:52:57;;;;;;;1.43;0.60;;;;;;;-145.69;100.00;52489.94;5116251;28;20679;-82
2023/03/10 05:55:27;;;;;;;4.17;0.67;;;;;;;-145.69;100.00;52468.16;5115079;28;20221;-83
2023/03/10 05:57:53;;;;;;;0.70;0.70;;;;;;;-145.69;100.00;52513.69;5116306;28;20662;-83
2023/03/10 06:00:21;;;;;;;1.90;0.70;;;;;;;-145.69;100.00;52517.66;5116635;28;20200;-83
2023/03/10 06:02:47;;;;;;;0.80;0.60;;;;;;;-145.69;100.00;52499.84;5116204;28;20656;-83
2023/03/10 06:05:14;;;;;;;0.80;0.60;;;;;;;-145.69;100.00;52531.53;5116295;28;20190;-83
2023/03/10 06:07:41;;;;;;;1.73;0.90;;;;;;;-145.69;100.00;52545.38;5116137;28;20201;-82
2023/03/10 06:10:09;;;;;;;0.73;0.70;;;;;;;-145.69;100.00;52525.59;5115886;28;20201;-82
2023/03/10 06:12:37;;;;;;;2.50;0.70;;;;;;;-145.69;100.00;52468.16;5116013;28;20678;-82
2023/03/10 06:15:03;;;;;;;1.73;0.80;;;;;;;-145.69;100.00;52505.78;5115897;28;20552;-82
2023/03/10 06:17:30;;;;;;;1.30;0.90;;;;;;;-145.69;100.00;52519.63;5116253;28;20208;-83
2023/03/10 06:19:57;;;;;;;2.30;0.70;;;;;;;-145.69;100.00;52505.78;5116084;28;20296;-84
2023/03/10 06:22:23;;;;;;;1.20;0.90;;;;;;;-145.69;100.00;52460.22;5115970;28;20201;-82
2023/03/10 06:24:50;;;;;;;1.63;0.80;;;;;;;-145.69;100.00;52511.72;5116084;28;20228;-84
2023/03/10 06:27:16;;;;;;;2.43;0.60;;;;;;;-145.69;100.00;52507.75;5117243;28;20212;-84
2023/03/10 06:29:45;;;;;;;2.63;0.70;;;;;;;-145.69;100.00;52515.69;5116406;28;20197;-82
2023/03/10 06:32:12;;;;;;;1.67;0.73;;;;;;;-145.69;100.00;52472.13;5115964;28;20279;-83
2023/03/10 06:34:38;;;;;;;2.17;0.63;;;;;;;-145.69;100.00;52497.84;5116119;28;20228;-82
2023/03/10 06:37:05;;;;;;;1.13;0.60;;;;;;;-145.69;100.00;52470.13;5115518;28;20205;-82
2023/03/10 06:39:31;;;;;;;1.17;0.83;;;;;;;-145.69;100.00;52476.06;5115268;28;20194;-82
2023/03/10 06:41:58;;;;;;;0.80;0.60;;;;;;;-145.69;100.00;52527.56;5115435;28;20247;-82
2023/03/10 06:44:24;;;;;;;0.83;0.80;;;;;;;-145.69;100.00;52515.69;5115276;28;20201;-82
2023/03/10 06:46:52;;;;;;;2.83;0.60;;;;;;;-145.69;100.00;52484.00;5115513;28;20197;-81
2023/03/10 06:49:18;;;;;;;5.37;0.70;;;;;;;-145.69;100.00;52511.72;5115170;28;20197;-82
2023/03/10 06:51:45;;;;;;;2.77;0.63;;;;;;;-145.69;100.00;52484.00;5115523;28;20197;-82
2023/03/10 06:54:11;;;;;;;1.13;0.60;;;;;;;-145.69;100.00;52462.22;5115269;28;20194;-81
2023/03/10 06:56:38;;;;;;;2.13;0.73;;;;;;;-145.69;100.00;52517.66;5115280;28;20221;-83
2023/03/10 06:59:04;;;;;;;2.73;0.90;;;;;;;-145.69;100.00;52493.91;5115906;28;20209;-83
2023/03/10 07:01:32;;;;;;;1.63;0.70;;;;;;;-145.69;100.00;52487.97;5115927;28;20671;-84
2023/03/10 07:04:01;;;;;;;0.60;0.60;;;;;;;-145.69;100.00;52503.81;5115656;28;20283;-83
2023/03/10 07:06:28;;;;;;;1.07;0.70;;;;;;;-145.69;100.00;52480.03;5115189;27;20202;-84
2023/03/10 07:08:55;;;;;;;1.20;0.53;;;;;;;-145.69;100.00;52509.75;5116340;28;20624;-84
2023/03/10 07:11:22;;;;;;;1.33;0.70;;;;;;;-145.69;100.00;52468.16;5116430;28;20197;-84
2023/03/10 07:13:48;;;;;;;1.77;1.07;;;;;;;-145.69;100.00;52484.00;5116566;28;20202;-83
2023/03/10 07:16:15;;;;;;;1.77;1.10;;;;;;;-145.69;100.00;52511.72;5116396;28;20225;-85
2023/03/10 07:18:42;;;;;;;2.20;1.00;;;;;;;-145.69;100.00;52489.94;5116454;28;20185;-85
2023/03/10 07:21:12;;;;;;;3.17;1.30;;;;;;;-145.69;100.00;52491.91;5116724;28;20200;-83
2023/03/10 07:23:39;;;;;;;2.37;0.80;;;;;;;-145.69;100.00;52487.97;5115679;28;20190;-84
2023/03/10 07:26:07;;;;;;;1.70;0.60;;;;;;;-145.69;100.00;52456.28;5116279;28;20698;-84
2023/03/10 07:28:35;;;;;;;3.47;1.07;;;;;;;-145.69;100.00;52476.06;5115691;28;20205;-84
2023/03/10 07:31:03;;;;;;;1.37;0.97;;;;;;;-145.69;100.00;52484.00;5117765;28;20208;-84
2023/03/10 07:33:29;;;;;;;3.70;0.90;;;;;;;-145.69;100.00;52482.00;5117274;28;20209;-83
2023/03/10 07:35:55;;;;;;;1.07;0.63;;;;;;;-145.69;100.00;52480.03;5116167;28;20229;-84
2023/03/10 07:38:23;;;;;;;3.87;1.00;;;;;;;-145.69;100.00;52484.00;5118384;28;20198;-82
2023/03/10 07:40:50;;;;;;;1.17;0.80;;;;;;;-145.69;100.00;52480.03;5115295;28;20189;-84
2023/03/10 07:43:16;;;;;;;1.13;0.70;;;;;;;-145.69;100.00;52482.00;5114297;28;20228;-82
2023/03/10 07:45:43;;;;;;;0.83;0.50;;;;;;;-145.69;100.00;52472.13;5113930;28;20197;-83
2023/03/10 07:48:09;;;;;;;2.43;0.97;;;;;;;-145.69;100.00;52480.03;5114306;28;20666;-83
2023/03/10 07:50:36;;;;;;;1.20;0.90;;;;;;;-145.69;100.00;52491.91;5114045;28;20212;-81
2023/03/10 07:53:02;;;;;;;2.67;0.80;;;;;;;-145.69;100.00;52495.88;5114009;28;20193;-83
2023/03/10 07:55:30;;;;;;;1.50;0.90;;;;;;;-145.69;100.00;52533.50;5114479;28;20222;-83
2023/03/10 07:57:59;;;;;;;4.63;1.33;;;;;;;-145.69;100.00;52468.16;5113977;28;20209;-81
2023/03/10 08:00:25;;;;;;;1.90;0.60;;;;;;;-145.69;100.00;52495.88;5113296;28;20190;-82
2023/03/10 08:02:52;;;;;;;2.10;0.73;;;;;;;-145.69;100.00;52511.72;5114003;28;20194;-82
2023/03/10 08:05:18;;;;;;;0.80;0.50;;;;;;;-145.69;100.00;52480.03;5114199;28;20212;-84
2023/03/10 08:07:45;;;;;;;3.53;0.80;;;;;;;-145.69;100.00;52519.63;5114063;28;20201;-83
2023/03/10 08:10:12;;;;;;;2.30;0.50;;;;;;;-145.69;100.00;52517.66;5113922;28;20663;-84
2023/03/10 08:12:40;;;;;;;1.37;0.70;;;;;;;-145.69;100.00;52505.78;5114096;28;20201;-83
2023/03/10 08:15:08;;;;;;;1.13;0.40;;;;;;;-145.69;100.00;52476.06;5111967;28;20221;-83
2023/03/10 08:17:34;;;;;;;1.27;0.60;;;;;;;-145.69;100.00;52513.69;5111744;28;20193;-83
2023/03/10 08:20:01;;;;;;;0.80;0.60;;;;;;;-145.69;100.00;52499.84;5114004;28;20194;-82
2023/03/10 08:22:28;;;;;;;2.63;0.90;;;;;;;-145.69;100.00;52513.69;5113985;28;20238;-82
2023/03/10 08:24:55;;;;;;;0.55;0.50;;;;;;;-145.69;100.00;52480.03;5113579;28;20434;-82
2023/03/10 08:27:21;;;;;;;0.90;0.57;;;;;;;-145.69;100.00;52499.84;5113753;28;20208;-83
2023/03/10 08:29:49;;;;;;;0.50;0.50;;;;;;;-145.69;100.00;52491.91;5113496;28;20200;-82
2023/03/10 08:32:15;;;;;;;0.83;0.50;;;;;;;-145.69;100.00;52499.84;5113551;28;20193;-81
2023/03/10 08:34:42;;;;;;;0.57;0.57;;;;;;;-145.69;100.00;52491.91;5113715;28;20660;-82
2023/03/10 08:37:09;;;;;;;1.60;0.50;;;;;;;-145.69;100.00;52460.22;5112268;28;20494;-77
2023/03/10 08:39:35;;;;;;;2.00;0.60;;;;;;;-145.69;100.00;52464.19;5113325;28;20197;-80
2023/03/10 08:42:02;;;;;;;2.40;0.70;;;;;;;-145.69;100.00;52489.94;5112745;28;20225;-82
2023/03/10 08:44:28;;;;;;;0.83;0.30;;;;;;;-145.69;100.00;52464.19;5113445;28;20220;-82
2023/03/10 08:46:56;;;;;;;2.10;0.50;;;;;;;-145.69;100.00;52472.13;5113628;28;20201;-82
2023/03/10 08:49:23;;;;;;;1.03;0.43;;;;;;;-145.69;100.00;52478.06;5113534;28;20200;-83
2023/03/10 08:51:49;;;;;;;2.53;0.77;;;;;;;-145.69;100.00;52503.81;5113886;28;20202;-82
2023/03/10 08:54:19;;;;;;;1.63;0.40;;;;;;;-145.69;100.00;52474.09;5113328;28;20197;-82
2023/03/10 08:56:45;;;;;;;1.27;0.50;;;;;;;-145.69;100.00;52446.38;5113493;28;20229;-83
2023/03/10 08:59:12;;;;;;;1.23;0.60;;;;;;;-145.69;100.00;52480.03;5113757;28;20208;-81
2023/03/10 09:01:39;;;;;;;4.13;0.70;;;;;;;-145.69;100.00;52476.06;5113149;28;20201;-81
2023/03/10 09:04:09;;;;;;;3.47;0.60;;;;;;;-145.69;100.00;52428.53;5113767;28;20201;-82
2023/03/10 09:06:36;;;;;;;4.40;1.33;;;;;;;-145.69;100.00;52432.50;5113852;28;20217;-83
2023/03/10 09:09:03;;;;;;;2.63;0.63;;;;;;;-145.69;100.00;52436.47;5114121;28;20200;-83
2023/03/10 09:11:31;;;;;;;0.83;0.57;;;;;;;-145.69;100.00;52468.16;5113622;28;20204;-82
2023/03/10 09:14:00;;;;;;;1.50;0.60;;;;;;;-145.69;100.00;52468.16;5114304;28;20212;-83
2023/03/10 09:16:28;;;;;;;1.27;0.50;;;;;;;-145.69;100.00;52487.97;5114208;28;20214;-83
2023/03/10 09:18:54;;;;;;;5.10;0.80;;;;;;;-145.69;100.00;52452.31;5113583;28;20627;-83
2023/03/10 09:21:22;;;;;;;1.17;0.67;;;;;;;-145.69;100.00;52474.09;5114286;28;20579;-84
2023/03/10 09:23:51;;;;;;;3.78;0.77;;;;;;;-145.69;100.00;52480.03;5113197;28;20441;-83
2023/03/10 09:26:18;;;;;;;5.00;0.73;;;;;;;-145.69;100.00;52505.78;5113853;28;20202;-82
2023/03/10 09:28:48;;;;;;;5.43;0.60;;;;;;;-145.69;100.00;52456.28;5113712;28;20313;-83
2023/03/10 09:31:17;;;;;;;2.70;0.70;;;;;;;-145.69;100.00;52474.09;5117077;28;20651;-81
2023/03/10 09:33:44;;;;;;;4.77;1.10;;;;;;;-145.69;100.00;52499.84;5118580;28;20201;-83
2023/03/10 09:36:10;;;;;;;5.37;0.90;;;;;;;-145.69;100.00;52468.16;5118739;28;20230;-83
2023/03/10 09:38:40;;;;;;;3.03;0.53;;;;;;;-145.69;100.00;52489.94;5116425;28;20197;-82
2023/03/10 09:41:32;;;;;;;2.00;0.60;;;;;;;-145.69;100.00;52482.00;5117046;28;20355;-83
2023/03/10 09:44:06;;;;;;;2.10;0.60;;;;;;;-145.69;100.00;52466.16;5117964;28;20204;-83
2023/03/10 09:46:42;;;;;;;3.03;0.60;;;;;;;-145.69;100.00;52484.00;5117425;28;20204;-82
2023/03/10 09:49:14;;;;;;;3.57;0.80;;;;;;;-145.69;100.00;52464.19;5117055;28;20718;-83
2023/03/10 09:51:48;;;;;;;3.17;0.50;;;;;;;-145.69;100.00;52476.06;5116922;28;20201;-84
2023/03/10 09:54:36;;;;;;;0.67;0.50;;;;;;;-145.69;100.00;52511.72;5116783;28;20200;-84
2023/03/10 09:57:17;;;;;;;3.90;1.00;;;;;;;-145.69;100.00;52501.81;5116874;28;20242;-83
2023/03/10 09:59:47;;;;;;;1.00;0.60;;;;;;;-145.69;100.00;52487.97;5115911;28;20204;-83
2023/03/10 10:02:20;;;;;;;2.20;0.57;;;;;;;-145.69;100.00;52521.63;5118517;28;20204;-83
2023/03/10 10:04:52;;;;;;;0.87;0.63;;;;;;;-145.69;100.00;52525.59;5119998;28;20194;-83
2023/03/10 10:07:23;;;;;;;2.27;0.90;;;;;;;-145.69;100.00;52489.94;5119197;28;20648;-83
2023/03/10 10:10:00;;;;;;;2.27;0.73;;;;;;;-145.69;100.00;52458.25;5118970;28;20517;-84
2023/03/10 10:12:33;;;;;;;1.50;0.73;;;;;;;-145.69;100.00;52513.69;5116636;28;20266;-84
2023/03/10 10:15:06;;;;;;;1.70;0.40;;;;;;;-145.69;100.00;52468.16;5121407;28;20204;-84
2023/03/10 10:17:53;;;;;;;1.60;0.80;;;;;;;-145.69;100.00;52448.34;5118909;28;20221;-83
2023/03/10 10:20:28;;;;;;;1.80;0.60;;;;;;;-145.69;100.00;52454.28;5118601;28;20651;-84
2023/03/10 10:22:57;;;;;;;3.50;0.70;;;;;;;-145.69;100.00;52480.03;5119275;28;20670;-83
2023/03/10 10:25:30;;;;;;;0.50;0.40;;;;;;;-145.69;100.00;52428.53;5118846;28;20198;-84
2023/03/10 10:27:59;;;;;;;1.23;0.60;;;;;;;-145.69;100.00;52493.91;5116695;28;20197;-81
2023/03/10 10:30:35;;;;;;;0.70;0.50;;;;;;;-145.69;100.00;52460.22;5120983;28;20303;-84
2023/03/10 10:33:07;;;;;;;1.80;0.60;;;;;;;-145.69;100.00;52450.31;5118396;28;20201;-81
2023/03/10 10:35:36;;;;;;;1.63;0.40;;;;;;;-145.69;100.00;52462.22;5115816;28;20202;-83
2023/03/10 10:38:06;;;;;;;1.03;0.57;;;;;;;-145.69;100.00;52462.22;5116135;28;20224;-85
2023/03/10 10:40:36;;;;;;;0.77;0.50;;;;;;;-145.69;100.00;52472.13;5115766;28;20193;-84
2023/03/10 10:43:06;;;;;;;3.00;0.50;;;;;;;-145.69;100.00;52464.19;5117396;28;20228;-84
2023/03/10 10:45:35;;;;;;;0.63;0.43;;;;;;;-145.69;100.00;52442.41;5116094;28;20197;-86
2023/03/10 10:48:02;;;;;;;1.97;0.77;;;;;;;-145.69;100.00;52446.38;5116353;28;20254;-85
2023/03/10 10:50:30;;;;;;;2.83;0.50;;;;;;;-145.69;100.00;52468.16;5116682;28;20277;-85
2023/03/10 10:53:19;;;;;;;1.60;0.60;;;;;;;-145.69;100.00;52440.44;5116476;28;20197;-85
2023/03/10 10:55:59;;;;;;;0.73;0.50;;;;;;;-145.69;100.00;52470.13;5115871;28;20201;-83
2023/03/10 10:58:29;;;;;;;1.47;0.60;;;;;;;-145.69;100.00;52484.00;5114847;28;20193;-83
2023/03/10 11:00:58;;;;;;;1.80;0.53;;;;;;;-145.69;100.00;52464.19;5114670;28;20197;-84
2023/03/10 11:03:27;;;;;;;0.47;0.40;;;;;;;-145.69;100.00;52464.19;5116447;28;20198;-83
2023/03/10 11:05:54;;;;;;;3.20;0.80;;;;;;;-145.69;100.00;52501.81;5116035;28;20208;-84
2023/03/10 11:08:36;;;;;;;0.40;0.40;;;;;;;-145.69;100.00;52476.06;5116255;28;20194;-83
2023/03/10 11:11:14;;;;;;;2.30;0.60;;;;;;;-145.69;100.00;52484.00;5112285;28;20611;-85
2023/03/10 11:13:58;;;;;;;0.47;0.40;;;;;;;-145.69;100.00;52472.13;5110438;28;20193;-84